createdAt,value
2018-07-21T00:01:17.914Z,53.09
2018-07-21T00:03:46.613Z,52.97
2018-07-21T00:06:15.555Z,53.12
2018-07-21T00:08:44.253Z,52.97
2018-07-21T00:11:13.076Z,52.66
2018-07-21T00:13:43.054Z,53.46
2018-07-21T00:16:11.724Z,53.11
2018-07-21T00:18:40.387Z,53.68
2018-07-21T00:21:09.323Z,53.52
2018-07-21T00:23:38.018Z,53.27
2018-07-21T00:26:06.786Z,53.18
2018-07-21T00:28:35.395Z,52.61
2018-07-21T00:31:04.055Z,53.04
2018-07-21T00:33:32.792Z,52.24
2018-07-21T00:36:01.406Z,52.69
2018-07-21T00:38:44.358Z,52.33
2018-07-21T00:41:13.039Z,52.67
2018-07-21T00:43:41.654Z,52.92
2018-07-21T00:46:10.220Z,52.83
2018-07-21T00:48:39.001Z,52.89
2018-07-21T00:51:07.739Z,53.00
2018-07-21T00:53:36.418Z,52.94
2018-07-21T00:56:05.118Z,53.47
2018-07-21T00:58:33.953Z,52.88
2018-07-21T01:01:02.591Z,53.55
2018-07-21T01:03:31.259Z,53.89
2018-07-21T01:05:59.865Z,53.67
2018-07-21T01:08:28.552Z,53.71
2018-07-21T01:10:57.334Z,53.96
2018-07-21T01:13:25.907Z,54.20
2018-07-21T01:15:54.516Z,54.19
2018-07-21T01:18:23.192Z,54.57
2018-07-21T01:20:51.912Z,54.75
2018-07-21T01:23:20.627Z,54.86
2018-07-21T01:25:49.352Z,54.87
2018-07-21T01:28:18.015Z,54.43
2018-07-21T01:30:46.611Z,55.18
2018-07-21T01:33:15.222Z,55.18
2018-07-21T01:35:43.866Z,54.72
2018-07-21T01:38:12.498Z,54.84
2018-07-21T01:40:41.288Z,54.83
2018-07-21T01:43:09.946Z,55.08
2018-07-21T01:45:38.665Z,54.81
2018-07-21T01:48:07.574Z,55.13
2018-07-21T01:50:36.285Z,55.01
2018-07-21T01:53:04.878Z,54.45
2018-07-21T01:55:33.930Z,55.13
2018-07-21T01:58:02.700Z,54.55
2018-07-21T02:00:31.656Z,54.61
2018-07-21T02:03:00.306Z,54.50
2018-07-21T02:05:28.993Z,54.11
2018-07-21T02:07:57.698Z,54.47
2018-07-21T02:10:26.345Z,54.15
2018-07-21T02:12:54.982Z,54.33
2018-07-21T02:15:23.619Z,53.81
2018-07-21T02:17:53.110Z,53.79
2018-07-21T02:20:22.824Z,53.82
2018-07-21T02:22:51.546Z,54.01
2018-07-21T02:25:20.189Z,53.38
2018-07-21T02:27:48.984Z,54.09
2018-07-21T02:30:17.561Z,54.16
2018-07-21T02:32:46.234Z,53.69
2018-07-21T02:35:14.957Z,54.15
2018-07-21T02:37:43.667Z,54.29
2018-07-21T02:40:12.299Z,53.97
2018-07-21T02:42:41.047Z,54.06
2018-07-21T02:45:09.751Z,53.96
2018-07-21T02:47:38.434Z,53.96
2018-07-21T02:50:07.201Z,53.70
2018-07-21T02:52:35.872Z,53.38
2018-07-21T02:55:04.581Z,54.12
2018-07-21T02:57:33.151Z,54.22
2018-07-21T03:00:01.866Z,54.12
2018-07-21T03:02:30.543Z,54.08
2018-07-21T03:04:59.314Z,53.86
2018-07-21T03:07:28.019Z,53.78
2018-07-21T03:09:56.626Z,53.56
2018-07-21T03:12:26.427Z,53.45
2018-07-21T03:14:55.074Z,53.70
2018-07-21T03:17:23.832Z,53.14
2018-07-21T03:19:52.517Z,53.85
2018-07-21T03:22:21.120Z,53.37
2018-07-21T03:24:49.802Z,53.46
2018-07-21T03:27:18.661Z,53.52
2018-07-21T03:29:47.396Z,53.46
2018-07-21T03:32:16.151Z,52.57
2018-07-21T03:34:44.818Z,53.00
2018-07-21T03:37:13.632Z,52.66
2018-07-21T03:39:42.255Z,52.70
2018-07-21T03:42:11.017Z,53.32
2018-07-21T03:44:39.724Z,52.63
2018-07-21T03:47:08.707Z,52.89
2018-07-21T03:49:37.395Z,52.76
2018-07-21T03:52:06.177Z,52.57
2018-07-21T03:54:34.936Z,52.76
2018-07-21T03:57:03.574Z,52.35
2018-07-21T03:59:32.425Z,52.24
2018-07-21T04:02:00.948Z,52.79
2018-07-21T04:04:29.552Z,52.83
2018-07-21T04:06:58.145Z,52.30
2018-07-21T04:09:26.777Z,52.61
2018-07-21T04:11:55.552Z,52.40
2018-07-21T04:14:24.324Z,52.47
2018-07-21T04:16:53.036Z,53.34
2018-07-21T04:19:21.742Z,52.35
2018-07-21T04:21:50.465Z,53.15
2018-07-21T04:24:19.155Z,51.96
2018-07-21T04:26:47.574Z,51.57
2018-07-21T04:29:16.280Z,51.28
2018-07-21T04:31:44.897Z,51.42
2018-07-21T04:34:13.449Z,51.58
2018-07-21T04:36:42.224Z,51.08
2018-07-21T04:39:11.960Z,51.34
2018-07-21T04:41:41.248Z,51.47
2018-07-21T04:44:09.978Z,51.28
2018-07-21T04:46:38.624Z,50.96
2018-07-21T04:49:07.362Z,51.54
2018-07-21T04:51:36.127Z,50.95
2018-07-21T04:54:04.820Z,49.91
2018-07-21T04:56:33.421Z,49.70
2018-07-21T04:59:02.191Z,50.18
2018-07-21T05:01:30.839Z,49.86
2018-07-21T05:03:59.491Z,50.45
2018-07-21T05:06:28.108Z,49.60
2018-07-21T05:09:01.229Z,50.57
2018-07-21T05:11:29.801Z,50.38
2018-07-21T05:13:58.474Z,50.37
2018-07-21T05:16:27.019Z,51.19
2018-07-21T05:18:55.567Z,50.66
2018-07-21T05:21:25.710Z,51.01
2018-07-21T05:23:54.414Z,51.69
2018-07-21T05:26:23.294Z,51.98
2018-07-21T05:28:51.965Z,51.74
2018-07-21T05:31:20.579Z,51.63
2018-07-21T05:33:49.282Z,51.63
2018-07-21T05:36:18.858Z,51.39
2018-07-21T05:38:47.686Z,51.67
2018-07-21T05:41:16.311Z,51.50
2018-07-21T05:43:45.109Z,52.07
2018-07-21T05:46:13.784Z,51.95
2018-07-21T05:48:42.538Z,52.35
2018-07-21T05:51:11.139Z,52.71
2018-07-21T05:53:39.761Z,52.71
2018-07-21T05:56:08.470Z,52.39
2018-07-21T05:58:37.202Z,53.66
2018-07-21T06:01:05.814Z,53.70
2018-07-21T06:03:34.474Z,53.85
2018-07-21T06:06:03.341Z,54.69
2018-07-21T06:08:31.962Z,55.52
2018-07-21T06:11:00.694Z,55.84
2018-07-21T06:13:29.385Z,55.12
2018-07-21T06:15:58.364Z,56.17
2018-07-21T06:18:27.062Z,55.70
2018-07-21T06:20:55.733Z,56.21
2018-07-21T06:23:24.469Z,58.69
2018-07-21T06:25:53.110Z,57.86
2018-07-21T06:28:27.612Z,58.33
2018-07-21T06:30:56.281Z,58.69
2018-07-21T06:33:25.345Z,59.03
2018-07-21T06:35:54.613Z,58.63
2018-07-21T06:38:23.909Z,58.53
2018-07-21T06:40:52.551Z,58.31
2018-07-21T06:43:21.282Z,58.59
2018-07-21T06:45:50.132Z,58.68
2018-07-21T06:48:19.008Z,58.91
2018-07-21T06:50:47.804Z,58.42
2018-07-21T06:53:16.752Z,58.10
2018-07-21T06:55:45.539Z,58.40
2018-07-21T06:58:14.172Z,58.26
2018-07-21T07:00:42.870Z,57.77
2018-07-21T07:03:11.445Z,57.09
2018-07-21T07:05:40.177Z,56.51
2018-07-21T07:08:09.052Z,55.59
2018-07-21T07:10:37.919Z,55.27
2018-07-21T07:13:06.811Z,54.43
2018-07-21T07:15:35.529Z,54.08
2018-07-21T07:18:04.455Z,53.77
2018-07-21T07:20:33.264Z,53.36
2018-07-21T07:23:01.942Z,53.16
2018-07-21T07:25:30.788Z,53.12
2018-07-21T07:27:59.690Z,52.85
2018-07-21T07:30:28.346Z,53.13
2018-07-21T07:32:57.097Z,52.54
2018-07-21T07:35:25.675Z,52.47
2018-07-21T07:37:54.305Z,52.39
2018-07-21T07:40:23.064Z,53.16
2018-07-21T07:42:51.907Z,52.46
2018-07-21T07:45:20.872Z,52.13
2018-07-21T07:47:49.602Z,51.77
2018-07-21T07:50:18.572Z,51.24
2018-07-21T07:52:47.249Z,50.05
2018-07-21T07:55:16.046Z,49.03
2018-07-21T07:57:44.825Z,49.32
2018-07-21T08:00:13.344Z,48.60
2018-07-21T08:02:41.970Z,48.76
2018-07-21T08:05:10.662Z,48.61
2018-07-21T08:07:42.195Z,49.14
2018-07-21T08:10:10.910Z,49.84
2018-07-21T08:12:39.649Z,49.56
2018-07-21T08:15:08.400Z,48.82
2018-07-21T08:17:37.039Z,48.72
2018-07-21T08:20:05.831Z,47.69
2018-07-21T08:22:34.608Z,47.95
2018-07-21T08:25:03.448Z,46.78
2018-07-21T08:27:32.145Z,47.08
2018-07-21T08:30:01.023Z,47.04
2018-07-21T08:32:29.642Z,46.88
2018-07-21T08:34:58.477Z,47.04
2018-07-21T08:37:28.142Z,47.93
2018-07-21T08:39:56.904Z,47.74
2018-07-21T08:42:25.844Z,49.35
2018-07-21T08:44:54.638Z,48.91
2018-07-21T08:47:23.367Z,49.49
2018-07-21T08:49:52.236Z,48.99
2018-07-21T08:52:21.082Z,48.89
2018-07-21T08:54:49.812Z,48.33
2018-07-21T08:57:18.670Z,48.23
2018-07-21T08:59:47.520Z,48.64
2018-07-21T09:02:16.200Z,49.64
2018-07-21T09:04:44.945Z,49.91
2018-07-21T09:07:13.612Z,49.53
2018-07-21T09:09:43.418Z,49.29
2018-07-21T09:12:12.333Z,49.98
2018-07-21T09:14:41.374Z,50.10
2018-07-21T09:17:10.220Z,50.16
2018-07-21T09:19:38.912Z,50.46
2018-07-21T09:22:07.507Z,50.46
2018-07-21T09:24:36.205Z,50.50
2018-07-21T09:27:04.868Z,51.16
2018-07-21T09:29:33.571Z,51.63
2018-07-21T09:32:02.599Z,51.75
2018-07-21T09:34:31.420Z,52.09
2018-07-21T09:37:00.315Z,52.08
2018-07-21T09:39:29.029Z,51.66
2018-07-21T09:41:57.896Z,53.23
2018-07-21T09:44:26.740Z,53.60
2018-07-21T09:46:55.517Z,54.83
2018-07-21T09:49:24.271Z,54.40
2018-07-21T09:51:53.023Z,56.75
2018-07-21T09:54:21.736Z,56.98
2018-07-21T09:56:50.469Z,58.04
2018-07-21T09:59:19.333Z,59.75
2018-07-21T10:01:48.123Z,59.78
2018-07-21T10:04:16.847Z,60.23
2018-07-21T10:06:45.696Z,65.40
2018-07-21T10:09:14.576Z,67.35
2018-07-21T10:11:43.196Z,64.98
2018-07-21T10:14:11.983Z,65.36
2018-07-21T10:16:40.871Z,69.46
2018-07-21T10:19:11.761Z,83.15
2018-07-21T10:21:40.449Z,84.61
2018-07-21T10:24:14.282Z,85.15
2018-07-21T10:26:48.100Z,83.18
2018-07-21T10:31:52.725Z,79.21
2018-07-21T10:34:21.461Z,80.09
2018-07-21T10:36:50.181Z,78.58
2018-07-21T10:39:18.785Z,76.61
2018-07-21T10:41:47.699Z,77.25
2018-07-21T10:44:16.450Z,77.55
2018-07-21T10:46:45.165Z,76.64
2018-07-21T10:49:13.760Z,76.54
2018-07-21T10:51:42.387Z,75.82
2018-07-21T10:54:11.086Z,75.92
2018-07-21T10:56:39.822Z,75.42
2018-07-21T10:59:08.551Z,75.65
2018-07-21T11:01:37.209Z,74.41
2018-07-21T11:04:05.888Z,75.71
2018-07-21T11:06:34.526Z,74.69
2018-07-21T11:09:03.340Z,73.52
2018-07-21T11:11:32.078Z,74.79
2018-07-21T11:14:00.877Z,74.74
2018-07-21T11:16:29.601Z,73.38
2018-07-21T11:18:58.302Z,73.51
2018-07-21T11:21:26.976Z,72.47
2018-07-21T11:23:55.672Z,72.66
2018-07-21T11:26:24.311Z,74.21
2018-07-21T11:28:53.022Z,73.30
2018-07-21T11:31:21.748Z,72.02
2018-07-21T11:33:51.249Z,72.36
2018-07-21T11:36:19.864Z,72.62
2018-07-21T11:38:48.622Z,72.31
2018-07-21T11:41:17.462Z,72.67
2018-07-21T11:43:46.249Z,71.19
2018-07-21T11:46:15.000Z,70.22
2018-07-21T11:48:43.711Z,70.98
2018-07-21T11:51:12.402Z,68.83
2018-07-21T11:53:41.048Z,66.84
2018-07-21T11:56:09.843Z,67.51
2018-07-21T11:58:38.515Z,68.10
2018-07-21T12:01:08.038Z,66.74
2018-07-21T12:03:36.771Z,67.53
2018-07-21T12:06:05.503Z,66.51
2018-07-21T12:08:34.251Z,67.14
2018-07-21T12:11:02.932Z,66.02
2018-07-21T12:13:31.661Z,64.93
2018-07-21T12:16:00.255Z,63.32
2018-07-21T12:18:28.911Z,63.29
2018-07-21T12:20:57.695Z,62.01
2018-07-21T12:23:26.391Z,62.26
2018-07-21T12:25:55.074Z,60.28
2018-07-21T12:28:23.770Z,59.69
2018-07-21T12:30:52.392Z,59.38
2018-07-21T12:33:21.024Z,57.20
2018-07-21T12:35:49.659Z,58.12
2018-07-21T12:38:18.275Z,57.63
2018-07-21T12:40:46.985Z,53.22
2018-07-21T12:43:15.679Z,54.09
2018-07-21T12:45:44.414Z,52.68
2018-07-21T12:48:13.178Z,53.43
2018-07-21T12:50:41.905Z,55.10
2018-07-21T12:53:10.587Z,54.75
2018-07-21T12:55:39.221Z,54.18
2018-07-21T12:58:08.029Z,54.05
2018-07-21T13:00:36.697Z,54.18
2018-07-21T13:03:05.575Z,52.87
2018-07-21T13:05:34.361Z,52.02
2018-07-21T13:08:03.057Z,51.23
2018-07-21T13:10:31.903Z,52.43
2018-07-21T13:13:00.726Z,51.03
2018-07-21T13:15:29.666Z,49.71
2018-07-21T13:17:58.485Z,47.24
2018-07-21T13:20:27.262Z,44.76
2018-07-21T13:22:55.973Z,42.75
2018-07-21T13:25:25.089Z,42.84
2018-07-21T13:27:54.053Z,40.56
2018-07-21T13:30:22.892Z,37.47
2018-07-21T13:32:51.547Z,37.75
2018-07-21T13:35:20.401Z,36.63
2018-07-21T13:37:53.551Z,37.60
2018-07-21T13:40:24.254Z,39.16
2018-07-21T13:43:01.115Z,37.46
2018-07-21T13:45:29.946Z,39.18
2018-07-21T13:47:58.714Z,41.78
2018-07-21T13:50:27.357Z,43.04
2018-07-21T13:52:55.958Z,42.97
2018-07-21T13:55:24.720Z,44.36
2018-07-21T13:57:53.381Z,45.39
2018-07-21T14:00:22.058Z,43.42
2018-07-21T14:02:50.825Z,42.20
2018-07-21T14:05:19.618Z,43.17
2018-07-21T14:07:48.312Z,40.92
2018-07-21T14:10:17.052Z,39.06
2018-07-21T14:12:45.653Z,37.40
2018-07-21T14:15:14.292Z,38.23
2018-07-21T14:17:42.947Z,36.95
2018-07-21T14:20:11.537Z,38.08
2018-07-21T14:22:40.397Z,36.82
2018-07-21T14:25:09.055Z,37.19
2018-07-21T14:27:38.822Z,37.90
2018-07-21T14:30:08.727Z,37.26
2018-07-21T14:32:37.695Z,32.52
2018-07-21T14:35:06.879Z,32.73
2018-07-21T14:37:35.476Z,31.53
2018-07-21T14:40:04.235Z,34.43
2018-07-21T14:42:33.074Z,32.90
2018-07-21T14:45:02.911Z,31.67
2018-07-21T14:47:31.526Z,30.92
2018-07-21T14:50:00.372Z,26.24
2018-07-21T14:52:28.957Z,24.28
2018-07-21T14:54:57.875Z,24.45
2018-07-21T14:57:26.502Z,25.15
2018-07-21T14:59:55.246Z,26.37
2018-07-21T15:02:23.889Z,27.58
2018-07-21T15:04:52.575Z,29.12
2018-07-21T15:07:21.392Z,28.98
2018-07-21T15:09:50.056Z,29.03
2018-07-21T15:12:18.666Z,28.32
2018-07-21T15:14:47.394Z,26.39
2018-07-21T15:17:16.205Z,25.22
2018-07-21T15:19:45.034Z,24.14
2018-07-21T15:22:13.689Z,21.68
2018-07-21T15:24:42.479Z,20.77
2018-07-21T15:27:11.231Z,22.28
2018-07-21T15:29:40.050Z,24.42
2018-07-21T15:32:08.943Z,24.15
2018-07-21T15:34:37.837Z,24.46
2018-07-21T15:37:07.009Z,27.92
2018-07-21T15:39:35.620Z,30.94
2018-07-21T15:42:04.416Z,30.17
2018-07-21T15:44:33.196Z,34.00
2018-07-21T15:47:01.918Z,34.09
2018-07-21T15:49:30.561Z,34.37
2018-07-21T15:51:59.253Z,35.36
2018-07-21T15:54:27.871Z,34.82
2018-07-21T15:56:56.521Z,36.66
2018-07-21T15:59:25.133Z,38.78
2018-07-21T16:01:53.709Z,38.74
2018-07-21T16:04:22.414Z,40.51
2018-07-21T16:06:51.110Z,41.47
2018-07-21T16:09:19.738Z,40.83
2018-07-21T16:11:48.441Z,41.24
2018-07-21T16:14:17.135Z,43.05
2018-07-21T16:16:45.923Z,42.77
2018-07-21T16:19:14.728Z,41.14
2018-07-21T16:21:43.631Z,42.98
2018-07-21T16:24:12.477Z,42.33
2018-07-21T16:26:41.425Z,41.83
2018-07-21T16:29:10.187Z,43.43
2018-07-21T16:31:38.890Z,45.80
2018-07-21T16:34:07.569Z,46.47
2018-07-21T16:36:36.235Z,45.27
2018-07-21T16:39:08.266Z,46.99
2018-07-21T16:41:36.891Z,47.20
2018-07-21T16:44:05.650Z,46.20
2018-07-21T16:46:34.455Z,47.78
2018-07-21T16:49:03.294Z,48.92
2018-07-21T16:51:32.106Z,49.25
2018-07-21T16:54:00.842Z,50.42
2018-07-21T16:56:29.665Z,50.87
2018-07-21T16:58:58.365Z,51.60
2018-07-21T17:01:27.087Z,52.64
2018-07-21T17:03:55.694Z,53.74
2018-07-21T17:06:25.591Z,54.11
2018-07-21T17:08:54.651Z,52.22
2018-07-21T17:11:23.441Z,53.92
2018-07-21T17:13:52.298Z,55.66
2018-07-21T17:16:21.755Z,54.56
2018-07-21T17:18:50.611Z,56.20
2018-07-21T17:21:19.374Z,56.29
2018-07-21T17:23:48.428Z,55.80
2018-07-21T17:26:18.222Z,55.51
2018-07-21T17:28:46.980Z,54.14
2018-07-21T17:31:15.927Z,54.48
2018-07-21T17:33:44.770Z,54.55
2018-07-21T17:39:08.454Z,55.42
2018-07-21T17:41:37.604Z,55.26
2018-07-21T17:44:06.266Z,55.26
2018-07-21T17:46:35.502Z,54.68
2018-07-21T17:49:04.348Z,54.46
2018-07-21T17:51:52.088Z,53.97
2018-07-21T17:54:21.026Z,52.26
2018-07-21T17:56:50.663Z,53.76
2018-07-21T17:59:20.740Z,54.46
2018-07-21T18:01:50.192Z,56.13
2018-07-21T18:04:21.164Z,55.42
2018-07-21T18:06:49.850Z,55.23
2018-07-21T18:09:19.436Z,56.50
2018-07-21T18:11:48.419Z,54.33
2018-07-21T18:14:17.151Z,54.75
2018-07-21T18:16:45.885Z,55.05
2018-07-21T18:19:14.545Z,54.71
2018-07-21T18:21:43.159Z,55.54
2018-07-21T18:24:11.805Z,56.09
2018-07-21T18:26:40.463Z,57.42
2018-07-21T18:29:09.203Z,57.19
2018-07-21T18:31:38.050Z,57.85
2018-07-21T18:34:12.903Z,58.28
2018-07-21T18:36:45.934Z,58.00
2018-07-21T18:39:39.813Z,59.34
2018-07-21T18:42:08.502Z,64.59
2018-07-21T18:44:37.144Z,61.51
2018-07-21T18:47:05.827Z,63.52
2018-07-21T18:49:36.498Z,63.53
2018-07-21T18:52:12.064Z,65.76
2018-07-21T18:54:41.668Z,64.91
2018-07-21T18:57:10.819Z,64.11
2018-07-21T18:59:39.450Z,62.53
2018-07-21T19:02:08.046Z,63.71
2018-07-21T19:04:38.713Z,62.83
2018-07-21T19:08:00.176Z,62.07
2018-07-21T19:13:33.052Z,62.28
2018-07-21T19:16:16.804Z,63.73
2018-07-21T19:18:45.191Z,64.01
2018-07-21T19:21:20.840Z,63.62
2018-07-21T19:23:50.146Z,62.87
2018-07-21T19:26:28.098Z,67.60
2018-07-21T19:28:57.128Z,65.77
2018-07-21T19:31:25.431Z,64.33
2018-07-21T19:33:53.719Z,65.09
2018-07-21T19:36:22.163Z,64.39
2018-07-21T19:38:51.096Z,64.78
2018-07-21T19:41:24.880Z,64.14
2018-07-21T19:43:56.525Z,63.85
2018-07-21T19:46:24.919Z,62.92
2018-07-21T19:48:53.381Z,62.40
2018-07-21T19:51:21.706Z,62.29
2018-07-21T19:53:50.004Z,61.34
2018-07-21T19:56:18.360Z,60.10
2018-07-21T19:58:47.723Z,60.73
2018-07-21T20:01:16.184Z,60.99
2018-07-21T20:03:44.521Z,60.83
2018-07-21T20:06:12.884Z,60.21
2018-07-21T20:08:41.391Z,59.94
2018-07-21T20:11:11.187Z,60.81
2018-07-21T20:13:41.955Z,61.04
2018-07-21T20:16:10.257Z,60.57
2018-07-21T20:18:38.612Z,60.58
2018-07-21T20:21:07.273Z,61.54
2018-07-21T20:23:35.998Z,61.85
2018-07-21T20:26:04.385Z,62.03
2018-07-21T20:28:32.702Z,61.93
2018-07-21T20:31:00.964Z,62.33
2018-07-21T20:33:29.490Z,62.79
2018-07-21T20:36:02.941Z,62.52
2018-07-21T20:38:31.601Z,62.16
2018-07-21T20:41:00.083Z,61.62
2018-07-21T20:43:28.500Z,61.20
2018-07-21T20:45:56.799Z,61.47
2018-07-21T20:48:25.326Z,61.14
2018-07-21T20:50:53.759Z,61.53
2018-07-21T20:53:22.424Z,61.17
2018-07-21T20:55:51.563Z,60.73
2018-07-21T20:58:19.954Z,61.35
2018-07-21T21:00:48.441Z,60.82
2018-07-21T21:03:18.848Z,60.67
2018-07-21T21:06:08.672Z,60.32
2018-07-21T21:08:44.017Z,60.09
2018-07-21T21:11:14.619Z,60.21
2018-07-21T21:13:44.260Z,60.20
2018-07-21T21:16:12.568Z,59.88
2018-07-21T21:18:40.981Z,60.09
2018-07-21T21:21:09.429Z,59.98
2018-07-21T21:23:37.897Z,60.65
2018-07-21T21:26:07.277Z,60.69
2018-07-21T21:28:36.549Z,59.86
2018-07-21T21:31:04.904Z,59.64
2018-07-21T21:33:33.249Z,59.80
2018-07-21T21:36:01.678Z,59.61
2018-07-21T21:38:31.886Z,58.77
2018-07-21T21:41:01.885Z,59.24
2018-07-21T21:43:31.951Z,58.93
2018-07-21T21:46:01.527Z,59.36
2018-07-21T21:48:30.955Z,59.24
2018-07-21T21:50:59.905Z,59.60
2018-07-21T21:53:29.305Z,59.14
2018-07-21T21:55:58.281Z,59.31
2018-07-21T21:58:27.776Z,59.26
2018-07-21T22:01:08.836Z,59.18
2018-07-21T22:03:37.186Z,59.18
2018-07-21T22:06:05.997Z,58.43
2018-07-21T22:08:34.706Z,58.32
2018-07-21T22:11:04.426Z,57.96
2018-07-21T22:13:32.795Z,58.53
2018-07-21T22:16:01.587Z,59.14
2018-07-21T22:18:31.199Z,58.69
2018-07-21T22:20:59.456Z,59.17
2018-07-21T22:23:27.843Z,59.06
2018-07-21T22:25:56.602Z,58.93
2018-07-21T22:28:25.180Z,59.16
2018-07-21T22:30:53.493Z,59.34
2018-07-21T22:33:23.024Z,59.71
2018-07-21T22:35:51.412Z,59.19
2018-07-21T22:38:19.964Z,59.41
2018-07-21T22:40:48.350Z,58.70
2018-07-21T22:43:17.057Z,58.31
2018-07-21T22:45:46.196Z,58.79
2018-07-21T22:48:15.150Z,58.29
2018-07-21T22:50:43.834Z,59.33
2018-07-21T22:53:12.112Z,59.09
2018-07-21T22:55:40.379Z,59.87
2018-07-21T22:58:11.245Z,60.94
2018-07-21T23:00:39.802Z,59.95
2018-07-21T23:03:09.148Z,59.69
2018-07-21T23:05:41.153Z,59.30
2018-07-21T23:08:09.587Z,59.54
2018-07-21T23:10:38.572Z,59.03
2018-07-21T23:13:07.811Z,59.49
2018-07-21T23:15:36.206Z,59.06
2018-07-21T23:18:04.708Z,59.26
2018-07-21T23:20:33.056Z,59.56
2018-07-21T23:23:01.781Z,59.46
2018-07-21T23:25:30.058Z,59.91
2018-07-21T23:27:58.376Z,59.81
2018-07-21T23:30:26.776Z,59.73
2018-07-21T23:32:55.198Z,59.20
2018-07-21T23:35:23.917Z,59.10
2018-07-21T23:37:52.208Z,59.70
2018-07-21T23:40:20.524Z,60.05
2018-07-21T23:42:48.940Z,60.61
2018-07-21T23:45:17.415Z,60.75
2018-07-21T23:47:45.740Z,60.70
2018-07-21T23:50:14.108Z,62.65
2018-07-21T23:52:42.821Z,62.47
2018-07-21T23:55:11.357Z,62.83
2018-07-21T23:57:39.680Z,62.39
